Flight Track Log - Related Links

Times and Time Zones

All times are in EST time to prevent confusion due to time zone crossing. See the ASA60 flight status page for this flight to view local times or setup timezone preferences in your user account.

Time Position Orientation Groundspeed Altitude Reporting Facility
EST Latitude Longitude Course Direction KTS MPH feet Rate Location/Type
Tue 11:29:48 AM 58.3167 -134.4667 153° Southeast 200 230 3,000  Level Anchorage Center
Tue 11:30:48 AM 58.2667 -134.3833 139° Southeast 260 299 6,300 3,400 Climbing Anchorage Center
Tue 11:31:48 AM 58.2167 -134.2833 133° Southeast 270 311 9,800 2,529 Climbing Anchorage Center
Tue 11:32:49 AM 58.1500 -134.1667 137° Southeast 330 380 11,400 2,486 Climbing Anchorage Center
Tue 11:36:40 AM 57.8000 -133.8333 155° Southeast 370 426 21,900 2,557 Climbing Anchorage Center
Tue 11:37:40 AM 57.7000 -133.7833 165° South 390 449 23,800 1,785 Climbing Anchorage Center
Tue 11:38:41 AM 57.6000 -133.7167 160° South 410 472 25,500 1,686 Climbing Anchorage Center
Tue 11:39:41 AM 57.4833 -133.6500 163° South 420 483 27,200 1,600 Climbing Anchorage Center
Tue 11:40:41 AM 57.3667 -133.5833 163° South 430 495 28,700 1,884 Climbing Anchorage Center
Tue 11:41:00 AM 57.3960 -133.6889 154° Southeast  Level FlightAware Approximate
Tue 11:41:42 AM 57.2500 -133.5167 163° South 430 495 31,000  Level Anchorage Center
Tue 11:42:00 AM 57.3055 -133.6089 155° Southeast  Level FlightAware Approximate
Tue 11:42:42 AM 57.1500 -133.4500 160° South 430 495 31,000  Level Anchorage Center
Tue 11:43:42 AM 57.0333 -133.3833 163° South 420 483 31,000  Level Anchorage Center
Tue 11:44:42 AM 56.9167 -133.3333 167° South 430 495 31,000  Level Anchorage Center
Tue 11:45:43 AM 56.8000 -133.2667 163° South 430 495 31,000  Level Anchorage Center
Tue 11:46:43 AM 56.6833 -133.2000 163° South 430 495 31,000 -1,467 Level Anchorage Center
Tue 11:48:43 AM 56.4667 -133.0833 163° South 410 472 26,600 -2,188 Descending Anchorage Center
Tue 11:49:44 AM 56.3667 -132.9667 147° Southeast 410 472 24,400 -2,281 Descending Anchorage Center
Tue 11:50:44 AM 56.2667 -132.8667 151° Southeast 390 449 22,000 -2,200 Descending Anchorage Center
Tue 11:51:44 AM 56.1833 -132.7667 146° Southeast 370 426 20,000 -2,083 Descending Anchorage Center
Tue 11:52:45 AM 56.1000 -132.6833 151° Southeast 360 414 17,800 -2,132 Descending Anchorage Center
Tue 11:53:45 AM 56.0167 -132.5833 146° Southeast 350 403 15,700 -2,083 Descending Anchorage Center
Tue 11:54:46 AM 55.9333 -132.5000 151° Southeast 340 391 13,600 -2,132 Descending Anchorage Center
Tue 11:55:46 AM 55.8500 -132.4167 151° Southeast 330 380 11,400 -1,800 Descending Anchorage Center
Tue 11:56:46 AM 55.7667 -132.3333 151° Southeast 320 368 10,000 -1,388 Descending Anchorage Center
Tue 11:57:47 AM 55.7000 -132.2667 151° Southeast 290 334 8,600 -1,240 Descending Anchorage Center
Tue 11:58:47 AM 55.6500 -132.1833 137° Southeast 270 311 7,500 -900 Descending Anchorage Center
Tue 11:59:47 AM 55.5833 -132.1333 157° South 220 253 6,800 -700 Descending Anchorage Center
Tue 12:01:00 PM 55.5099 -131.9608 137° Southeast  Level FlightAware Approximate
Tue 12:08:00 PM 55.3541 -131.7112 131° Southeast  Level Estimated
Tue 12:09:00 PM 55.3541 -131.7112 131° Southeast  Level Estimated
Tue 12:10:00 PM 55.3541 -131.7112 131° Southeast  Level Estimated
Tue 12:11:00 PM 55.3541 -131.7112 131° Southeast  Level Estimated
Tue 12:12:00 PM 55.3541 -131.7112 131° Southeast  Level Estimated
Tue 12:13:00 PM 55.3541 -131.7112 131° Southeast  Level Estimated
Tue 12:14:00 PM 55.3541 -131.7112 131° Southeast  Level Estimated
Tue 12:15:00 PM 55.3541 -131.7112 131° Southeast  Level Estimated
Tue 12:16:00 PM 55.3541 -131.7112 131° Southeast  Level Estimated

Login

Don't have an account? Register now (free) for customized features, flight alerts, and more!